Time;durP1;ratioP1;P1;durP2;ratioP2;P2;SDS_P1;SDS_P2;PMS_P1;PMS_P2;Temp;Humidity;BMP_temperature;BMP_pressure;BME280_temperature;BME280_humidity;BME280_pressure;Samples;Min_cycle;Max_cycle;Signal;HPM_P1;HPM_P2
2021/08/16 00:00:37;;;;;;;7.43;4.45;;;18.80;99.90;;;;;;5011770;28;20033;-84
2021/08/16 00:03:03;;;;;;;7.25;5.25;;;18.80;99.90;;;;;;4997202;28;20033;-84
2021/08/16 00:05:29;;;;;;;7.05;5.05;;;18.80;99.90;;;;;;4982234;28;20022;-87
2021/08/16 00:07:54;;;;;;;7.30;5.13;;;18.80;99.90;;;;;;4997327;28;20191;-85
2021/08/16 00:10:20;;;;;;;7.72;5.70;;;18.80;99.90;;;;;;5007663;28;20044;-85
2021/08/16 00:12:46;;;;;;;6.80;5.15;;;18.80;99.90;;;;;;4997135;28;20156;-84
2021/08/16 00:15:12;;;;;;;8.70;5.60;;;18.80;99.90;;;;;;4998044;28;20073;-84
2021/08/16 00:17:38;;;;;;;7.57;5.60;;;18.80;99.90;;;;;;5018912;28;20036;-87
2021/08/16 00:20:04;;;;;;;9.05;6.32;;;18.80;99.90;;;;;;4997282;28;20033;-85
2021/08/16 00:22:30;;;;;;;7.90;6.00;;;18.80;99.90;;;;;;4996082;28;20029;-85
2021/08/16 00:24:55;;;;;;;8.55;5.90;;;18.80;99.90;;;;;;4991799;28;20533;-85
2021/08/16 00:27:21;;;;;;;8.73;6.38;;;18.80;99.90;;;;;;4995303;28;20041;-85
2021/08/16 00:29:47;;;;;;;10.52;6.90;;;18.60;99.90;;;;;;5008886;28;20033;-86
2021/08/16 00:32:15;;;;;;;9.85;6.45;;;18.60;99.90;;;;;;5009215;28;20047;-85
2021/08/16 00:34:41;;;;;;;14.70;7.85;;;18.60;99.90;;;;;;5035568;28;20286;-85
2021/08/16 00:37:08;;;;;;;8.80;7.30;;;18.60;99.90;;;;;;5040193;28;20563;-85
2021/08/16 00:39:34;;;;;;;10.73;7.38;;;18.50;99.90;;;;;;5014166;28;20034;-85
2021/08/16 00:41:59;;;;;;;10.48;7.45;;;18.40;99.90;;;;;;5015451;28;20040;-85
2021/08/16 00:44:25;;;;;;;12.57;8.20;;;18.50;99.90;;;;;;4999609;28;20041;-85
2021/08/16 00:46:52;;;;;;;11.90;8.02;;;18.50;99.90;;;;;;5015584;28;20096;-86
2021/08/16 00:49:18;;;;;;;14.35;8.10;;;18.40;99.90;;;;;;5020358;28;20025;-85
2021/08/16 00:51:44;;;;;;;11.82;6.97;;;18.40;99.90;;;;;;5033285;28;20479;-85
2021/08/16 00:54:10;;;;;;;12.82;7.95;;;18.40;99.90;;;;;;5029818;28;20128;-86
2021/08/16 00:56:37;;;;;;;9.75;7.57;;;18.30;99.90;;;;;;5018950;28;20033;-85
2021/08/16 00:59:05;;;;;;;12.88;8.30;;;18.30;99.90;;;;;;5015797;28;20037;-85
2021/08/16 01:01:30;;;;;;;10.75;6.53;;;18.30;99.90;;;;;;5014752;28;20033;-85
2021/08/16 01:04:00;;;;;;;8.30;6.38;;;18.30;99.90;;;;;;5001795;28;20618;-84
2021/08/16 01:06:26;;;;;;;10.65;6.68;;;18.30;99.90;;;;;;5018723;28;20033;-86
2021/08/16 01:08:52;;;;;;;12.50;7.32;;;18.30;99.90;;;;;;5034799;28;20036;-85
2021/08/16 01:11:19;;;;;;;14.48;8.13;;;18.40;99.90;;;;;;5015025;28;20132;-85
2021/08/16 01:13:46;;;;;;;11.60;7.13;;;18.40;99.90;;;;;;4982621;28;20572;-85
2021/08/16 01:16:14;;;;;;;12.27;7.97;;;18.40;99.90;;;;;;5018600;28;20041;-86
2021/08/16 01:18:39;;;;;;;11.80;8.27;;;18.30;99.90;;;;;;5015211;28;20037;-85
2021/08/16 01:21:07;;;;;;;10.20;6.97;;;18.20;99.90;;;;;;4998287;28;20044;-85
2021/08/16 01:23:34;;;;;;;7.75;6.28;;;18.20;99.90;;;;;;5030798;28;20563;-85
2021/08/16 01:26:01;;;;;;;11.98;7.90;;;18.30;99.90;;;;;;5031264;28;20056;-85
2021/08/16 01:28:27;;;;;;;9.73;6.82;;;18.30;99.90;;;;;;5018274;28;20491;-87
2021/08/16 01:30:56;;;;;;;10.15;7.97;;;18.20;99.90;;;;;;5016697;28;20040;-86
2021/08/16 01:33:23;;;;;;;11.70;7.28;;;18.20;99.90;;;;;;5028761;28;20061;-85
2021/08/16 01:35:49;;;;;;;11.00;6.38;;;18.20;99.90;;;;;;5030323;28;20381;-85
2021/08/16 01:38:21;;;;;;;10.45;7.10;;;18.10;99.90;;;;;;4982169;28;20109;-86
2021/08/16 01:40:47;;;;;;;18.17;9.05;;;18.10;99.90;;;;;;4996636;28;20044;-85
2021/08/16 01:43:14;;;;;;;11.30;7.63;;;18.00;99.90;;;;;;5008203;28;20036;-85
2021/08/16 01:45:40;;;;;;;9.15;6.97;;;18.00;99.90;;;;;;5017841;28;20033;-85
2021/08/16 01:48:06;;;;;;;9.05;7.45;;;18.00;99.90;;;;;;5034323;28;20139;-85
2021/08/16 01:50:31;;;;;;;7.90;6.57;;;18.00;99.90;;;;;;5017161;28;20032;-85
2021/08/16 01:52:57;;;;;;;8.98;6.43;;;18.00;99.90;;;;;;5017198;28;20048;-85
2021/08/16 01:55:23;;;;;;;8.00;6.32;;;18.00;99.90;;;;;;5013884;28;20373;-85
2021/08/16 01:57:49;;;;;;;9.82;6.50;;;18.00;99.90;;;;;;4998032;28;20060;-85
2021/08/16 02:00:16;;;;;;;8.65;6.43;;;18.00;99.90;;;;;;5017417;28;20041;-85
2021/08/16 02:02:42;;;;;;;9.43;6.35;;;18.00;99.90;;;;;;4998227;28;20096;-85
2021/08/16 02:05:08;;;;;;;9.43;6.28;;;18.00;99.90;;;;;;5014354;28;20041;-85
2021/08/16 02:07:34;;;;;;;9.20;6.38;;;18.10;99.90;;;;;;4997789;28;20456;-85
2021/08/16 02:10:00;;;;;;;9.57;6.05;;;18.00;99.90;;;;;;4998568;28;20021;-85
2021/08/16 02:12:26;;;;;;;8.88;6.43;;;18.10;99.90;;;;;;5016895;28;20033;-85
2021/08/16 02:14:51;;;;;;;10.93;6.50;;;18.00;99.90;;;;;;5017377;28;20037;-85
2021/08/16 02:17:17;;;;;;;9.35;6.43;;;18.00;99.90;;;;;;5013486;28;20033;-85
2021/08/16 02:19:46;;;;;;;11.30;6.60;;;18.00;99.90;;;;;;4981377;28;20064;-85
2021/08/16 02:22:12;;;;;;;10.07;6.40;;;18.00;99.90;;;;;;4997145;28;20045;-85
2021/08/16 02:24:37;;;;;;;9.95;6.47;;;18.00;99.90;;;;;;5031728;28;20112;-85
2021/08/16 02:27:03;;;;;;;11.90;6.32;;;18.00;99.90;;;;;;5033383;28;20422;-85
2021/08/16 02:29:29;;;;;;;10.15;6.13;;;17.90;99.90;;;;;;5032831;28;20052;-85
2021/08/16 02:31:55;;;;;;;11.30;6.60;;;17.90;99.90;;;;;;5014838;28;20083;-85
2021/08/16 02:34:20;;;;;;;7.97;6.28;;;17.90;99.90;;;;;;5046076;28;20082;-85
2021/08/16 02:36:46;;;;;;;9.40;6.78;;;17.90;99.90;;;;;;5033641;28;20483;-85
2021/08/16 02:39:12;;;;;;;7.35;5.90;;;17.90;99.90;;;;;;5033006;28;20336;-85
2021/08/16 02:41:38;;;;;;;8.40;6.57;;;17.80;99.90;;;;;;5000244;28;20610;-85
2021/08/16 02:44:04;;;;;;;10.85;6.28;;;17.80;99.90;;;;;;5033353;28;20055;-85
2021/08/16 02:46:32;;;;;;;7.95;5.63;;;17.80;99.90;;;;;;5016947;28;20037;-85
2021/08/16 02:48:58;;;;;;;8.88;6.63;;;17.80;99.90;;;;;;5013381;28;20030;-85
2021/08/16 02:51:25;;;;;;;8.98;6.18;;;17.80;99.90;;;;;;4983856;28;20510;-85
2021/08/16 02:53:51;;;;;;;9.48;6.57;;;17.80;99.90;;;;;;5017307;28;20053;-85
2021/08/16 02:56:17;;;;;;;9.40;6.05;;;17.70;99.90;;;;;;5019791;28;20120;-85
2021/08/16 02:58:43;;;;;;;11.82;6.90;;;17.70;99.90;;;;;;5009348;28;20061;-85
2021/08/16 03:01:09;;;;;;;9.50;5.82;;;17.70;99.90;;;;;;5009758;28;20041;-87
2021/08/16 03:03:34;;;;;;;10.63;6.32;;;17.60;99.90;;;;;;5010405;28;20368;-86
2021/08/16 03:06:00;;;;;;;12.65;7.88;;;17.60;99.90;;;;;;5003542;28;20033;-86
2021/08/16 03:08:26;;;;;;;8.75;6.32;;;17.60;99.90;;;;;;5017154;28;20192;-87
2021/08/16 03:10:51;;;;;;;9.75;6.45;;;17.60;99.90;;;;;;5014011;28;20055;-86
2021/08/16 03:13:17;;;;;;;9.07;6.80;;;17.60;99.90;;;;;;5008103;28;20645;-86
2021/08/16 03:15:43;;;;;;;9.38;6.75;;;17.50;99.90;;;;;;5027789;28;20086;-86
2021/08/16 03:18:08;;;;;;;9.70;7.22;;;17.50;99.90;;;;;;5020875;28;20048;-86
2021/08/16 03:20:35;;;;;;;10.98;6.53;;;17.50;99.90;;;;;;4994847;28;20158;-86
2021/08/16 03:23:01;;;;;;;11.38;6.75;;;17.40;99.90;;;;;;5005276;28;20136;-87
2021/08/16 03:25:27;;;;;;;9.65;6.65;;;17.40;99.90;;;;;;5035635;28;20061;-87
2021/08/16 03:27:52;;;;;;;10.07;7.55;;;17.40;99.90;;;;;;5011670;28;20128;-86
2021/08/16 03:30:18;;;;;;;12.10;6.75;;;17.40;99.90;;;;;;5015731;28;20033;-85
2021/08/16 03:32:47;;;;;;;9.95;7.30;;;17.40;99.90;;;;;;5004976;28;20025;-87
2021/08/16 03:35:13;;;;;;;10.95;7.25;;;17.40;99.90;;;;;;5009636;28;20025;-87
2021/08/16 03:37:40;;;;;;;10.23;6.82;;;17.40;99.90;;;;;;5017199;28;20075;-86
2021/08/16 03:40:07;;;;;;;16.67;8.10;;;17.30;99.90;;;;;;5008283;28;20094;-86
2021/08/16 03:42:33;;;;;;;9.80;6.22;;;17.20;99.90;;;;;;5003642;28;20033;-85
2021/08/16 03:44:58;;;;;;;15.00;8.18;;;17.20;99.90;;;;;;5002482;28;20129;-86
2021/08/16 03:47:24;;;;;;;10.73;7.30;;;17.20;99.90;;;;;;5020840;28;20040;-85
2021/08/16 03:49:51;;;;;;;12.75;7.18;;;17.10;99.90;;;;;;5020683;28;20029;-87
2021/08/16 03:52:17;;;;;;;11.85;7.38;;;17.10;99.90;;;;;;5016798;28;20250;-86
2021/08/16 03:54:43;;;;;;;11.70;7.20;;;17.20;99.90;;;;;;5024582;28;20511;-87
2021/08/16 03:57:08;;;;;;;14.85;8.50;;;17.20;99.90;;;;;;4998725;28;20099;-87
2021/08/16 03:59:34;;;;;;;12.25;6.90;;;17.10;99.90;;;;;;5023825;28;20495;-86
2021/08/16 04:02:00;;;;;;;8.93;6.47;;;17.00;99.90;;;;;;5009715;28;20104;-87
2021/08/16 04:04:25;;;;;;;10.30;7.40;;;16.90;99.90;;;;;;5015441;28;20033;-86
2021/08/16 04:06:52;;;;;;;9.45;7.40;;;17.00;99.90;;;;;;5019169;28;20042;-86
2021/08/16 04:09:18;;;;;;;9.38;6.78;;;16.90;99.90;;;;;;5010390;28;20712;-86
2021/08/16 04:11:44;;;;;;;9.55;6.80;;;17.00;99.90;;;;;;5027813;28;20025;-88
2021/08/16 04:14:10;;;;;;;9.35;6.28;;;16.90;99.90;;;;;;5014780;28;20040;-87
2021/08/16 04:16:35;;;;;;;10.65;6.85;;;17.00;99.90;;;;;;5012717;28;20033;-88
2021/08/16 04:19:01;;;;;;;12.07;7.03;;;17.00;99.90;;;;;;5014713;28;20041;-88
2021/08/16 04:21:27;;;;;;;8.48;6.72;;;16.90;99.90;;;;;;5009364;28;20546;-87
2021/08/16 04:23:52;;;;;;;11.23;6.82;;;17.00;99.90;;;;;;5012662;28;20036;-88
2021/08/16 04:26:18;;;;;;;9.40;6.93;;;17.00;99.90;;;;;;5026506;28;20430;-87
2021/08/16 04:28:44;;;;;;;11.80;7.60;;;17.00;99.90;;;;;;5002026;28;20383;-88
2021/08/16 04:31:10;;;;;;;9.40;6.90;;;17.10;99.90;;;;;;5012451;28;20036;-87
2021/08/16 04:33:36;;;;;;;11.77;7.20;;;17.20;99.90;;;;;;4992126;28;20032;-87
2021/08/16 04:36:02;;;;;;;9.75;7.80;;;17.20;99.90;;;;;;4991172;28;20025;-87
2021/08/16 04:38:28;;;;;;;9.98;7.18;;;17.10;99.90;;;;;;5036245;28;20068;-86
2021/08/16 04:40:54;;;;;;;11.68;8.18;;;17.00;99.90;;;;;;5009945;28;21538;-86
2021/08/16 04:43:20;;;;;;;10.00;7.07;;;17.00;99.90;;;;;;5047830;28;20040;-86
2021/08/16 04:45:46;;;;;;;11.20;6.97;;;17.00;99.90;;;;;;5009999;28;20452;-86
2021/08/16 04:48:12;;;;;;;11.05;7.30;;;17.10;99.90;;;;;;5008024;28;20033;-86
2021/08/16 04:50:38;;;;;;;11.02;7.15;;;17.10;99.90;;;;;;4997370;28;20518;-86
2021/08/16 04:53:03;;;;;;;10.38;7.45;;;17.20;99.90;;;;;;5011058;28;20120;-85
2021/08/16 04:55:29;;;;;;;9.25;7.22;;;17.30;99.90;;;;;;5025486;28;20124;-86
2021/08/16 04:57:55;;;;;;;11.27;6.85;;;17.60;99.90;;;;;;4989191;28;20057;-86
2021/08/16 05:00:25;;;;;;;11.27;6.28;;;17.60;99.90;;;;;;4997085;28;20044;-89
2021/08/16 05:02:51;;;;;;;14.85;7.35;;;17.60;99.90;;;;;;5003669;28;20026;-87
2021/08/16 05:05:18;;;;;;;7.75;6.30;;;17.80;99.90;;;;;;5014207;28;20068;-86
2021/08/16 05:07:55;;;;;;;8.02;5.88;;;17.80;99.90;;;;;;5018366;28;20029;-86
2021/08/16 05:10:22;;;;;;;8.68;6.07;;;17.90;99.90;;;;;;5032973;28;20029;-86
2021/08/16 05:12:49;;;;;;;9.15;6.20;;;18.00;99.90;;;;;;5005961;28;20037;-86
2021/08/16 05:15:15;;;;;;;8.52;6.10;;;18.00;99.90;;;;;;5034946;28;20467;-87
2021/08/16 05:17:41;;;;;;;7.25;5.80;;;18.00;99.90;;;;;;5018477;28;20029;-86
2021/08/16 05:20:08;;;;;;;9.00;6.13;;;18.00;99.90;;;;;;5034235;28;20570;-87
2021/08/16 05:22:37;;;;;;;8.68;6.40;;;18.00;99.90;;;;;;5025204;28;20033;-87
2021/08/16 05:25:04;;;;;;;11.82;6.55;;;18.10;99.90;;;;;;5031667;28;20507;-86
2021/08/16 05:27:30;;;;;;;10.32;6.97;;;18.20;99.90;;;;;;5034613;28;20036;-86
2021/08/16 05:29:55;;;;;;;10.40;6.20;;;18.20;99.90;;;;;;5017512;28;20514;-86
2021/08/16 05:32:21;;;;;;;7.93;6.30;;;18.20;99.90;;;;;;5017454;28;20060;-86
2021/08/16 05:34:47;;;;;;;11.00;6.55;;;18.20;99.90;;;;;;5020622;28;20410;-86
2021/08/16 05:37:12;;;;;;;9.18;6.03;;;18.20;99.90;;;;;;5033623;28;20090;-87
2021/08/16 05:39:38;;;;;;;9.93;6.43;;;18.20;99.90;;;;;;5006513;28;20124;-87
2021/08/16 05:42:04;;;;;;;8.18;6.45;;;18.20;99.90;;;;;;4999381;28;20516;-86
2021/08/16 05:44:30;;;;;;;8.75;6.38;;;18.20;99.90;;;;;;5017963;28;20057;-86
2021/08/16 05:46:55;;;;;;;9.52;6.25;;;18.30;99.90;;;;;;5015974;28;20037;-87
2021/08/16 05:49:22;;;;;;;8.57;6.22;;;18.30;99.90;;;;;;5010908;28;20041;-86
2021/08/16 05:51:48;;;;;;;8.80;6.32;;;18.30;99.90;;;;;;5008790;28;20021;-86
2021/08/16 05:54:13;;;;;;;10.32;6.75;;;18.30;99.90;;;;;;5016960;28;20480;-86
2021/08/16 05:56:39;;;;;;;6.20;4.95;;;18.40;99.90;;;;;;5002098;28;20033;-85
2021/08/16 05:59:05;;;;;;;7.43;5.93;;;18.40;99.90;;;;;;4981419;28;20037;-85
2021/08/16 06:01:33;;;;;;;7.25;5.78;;;18.50;99.90;;;;;;5006532;28;20525;-86
2021/08/16 06:04:00;;;;;;;8.50;6.15;;;18.60;99.90;;;;;;4982793;28;20033;-86
2021/08/16 06:06:26;;;;;;;9.27;5.95;;;18.60;99.90;;;;;;5015885;28;20037;-86
2021/08/16 06:08:51;;;;;;;9.10;6.32;;;18.80;99.90;;;;;;5023968;28;20036;-86
2021/08/16 06:11:17;;;;;;;11.40;6.50;;;18.80;99.90;;;;;;5016762;28;21842;-86
2021/08/16 06:13:43;;;;;;;20.48;8.68;;;18.90;99.90;;;;;;5026319;28;20040;-86
2021/08/16 06:16:08;;;;;;;15.10;7.30;;;18.90;99.90;;;;;;4997390;28;20087;-86
2021/08/16 06:18:34;;;;;;;12.07;7.32;;;18.80;99.90;;;;;;5013086;28;20124;-86
2021/08/16 06:21:00;;;;;;;8.65;6.20;;;18.80;99.90;;;;;;5000102;28;20032;-86
2021/08/16 06:23:26;;;;;;;9.80;6.20;;;18.80;99.90;;;;;;5028823;28;20096;-86
2021/08/16 06:25:51;;;;;;;9.32;5.60;;;18.80;99.90;;;;;;4997543;28;20635;-87
2021/08/16 06:28:17;;;;;;;7.68;4.97;;;18.80;99.90;;;;;;4983927;28;20033;-86
2021/08/16 06:30:43;;;;;;;5.72;4.15;;;18.80;99.90;;;;;;4996797;28;20037;-86
2021/08/16 06:33:08;;;;;;;8.23;4.60;;;18.80;99.90;;;;;;4993237;28;20033;-86
2021/08/16 06:35:36;;;;;;;7.05;5.10;;;18.70;99.90;;;;;;5000717;28;20048;-86
2021/08/16 06:38:02;;;;;;;8.82;5.60;;;18.70;99.90;;;;;;5010690;28;20121;-87
2021/08/16 06:40:28;;;;;;;9.60;6.13;;;18.80;99.90;;;;;;5009707;28;20566;-86
2021/08/16 06:42:54;;;;;;;6.93;5.07;;;19.00;99.90;;;;;;4999954;28;20056;-87
2021/08/16 06:45:19;;;;;;;8.20;5.30;;;19.20;99.90;;;;;;5004607;28;20040;-86
2021/08/16 06:47:45;;;;;;;11.80;6.10;;;19.20;99.90;;;;;;5005890;28;20033;-86
2021/08/16 06:50:11;;;;;;;7.68;5.40;;;19.30;99.90;;;;;;5020866;28;20538;-86
2021/08/16 06:52:37;;;;;;;7.40;5.80;;;19.40;99.90;;;;;;5001661;28;20060;-86
2021/08/16 06:55:03;;;;;;;8.00;6.10;;;19.50;99.90;;;;;;5016235;28;20090;-87
2021/08/16 06:57:29;;;;;;;8.43;6.03;;;19.80;99.90;;;;;;5016955;28;20039;-87
2021/08/16 06:59:55;;;;;;;8.30;6.18;;;20.00;99.90;;;;;;5005522;28;20041;-86
2021/08/16 07:02:21;;;;;;;9.23;5.80;;;20.30;99.90;;;;;;5018319;28;20029;-87
2021/08/16 07:04:47;;;;;;;9.18;5.82;;;20.60;99.90;;;;;;5009957;28;20040;-87
2021/08/16 07:07:13;;;;;;;8.02;5.35;;;20.80;99.90;;;;;;5002512;28;20078;-86
2021/08/16 07:09:38;;;;;;;7.80;5.53;;;20.80;99.90;;;;;;5031296;28;20094;-87
2021/08/16 07:12:04;;;;;;;6.95;4.95;;;20.80;99.90;;;;;;5021075;28;20033;-86
2021/08/16 07:14:30;;;;;;;6.65;5.38;;;20.70;99.90;;;;;;5033647;28;20014;-85
2021/08/16 07:16:56;;;;;;;7.85;4.85;;;20.70;99.90;;;;;;5020283;28;20493;-85
2021/08/16 07:19:21;;;;;;;7.03;4.70;;;20.90;99.90;;;;;;5004687;28;20082;-85
2021/08/16 07:21:47;;;;;;;6.53;4.60;;;21.10;99.90;;;;;;5035305;28;20040;-86
2021/08/16 07:24:14;;;;;;;7.70;4.22;;;21.40;99.90;;;;;;5052911;28;20399;-85
2021/08/16 07:26:40;;;;;;;6.25;4.78;;;21.80;99.90;;;;;;5040012;28;20495;-85
2021/08/16 07:29:06;;;;;;;4.72;4.32;;;22.00;99.90;;;;;;5049524;28;20029;-86
2021/08/16 07:31:32;;;;;;;5.90;3.90;;;22.10;99.90;;;;;;5040986;28;20078;-87
2021/08/16 07:33:57;;;;;;;5.68;4.13;;;22.10;99.90;;;;;;5031084;28;20095;-86
2021/08/16 07:36:23;;;;;;;5.35;3.40;;;22.10;99.90;;;;;;5016896;28;20059;-87
2021/08/16 07:38:49;;;;;;;6.78;3.88;;;22.10;99.90;;;;;;4999997;28;20545;-87
2021/08/16 07:41:15;;;;;;;5.57;3.17;;;22.10;99.90;;;;;;4998319;28;20041;-88
2021/08/16 07:43:40;;;;;;;5.82;3.85;;;22.00;99.90;;;;;;4992894;28;20056;-86
2021/08/16 07:46:06;;;;;;;7.03;3.47;;;22.00;99.90;;;;;;5017660;28;20067;-85
2021/08/16 07:48:32;;;;;;;3.72;2.92;;;22.00;99.90;;;;;;5048318;28;20464;-86
2021/08/16 07:50:57;;;;;;;5.45;3.25;;;22.00;99.90;;;;;;5010132;28;20029;-85
2021/08/16 07:53:23;;;;;;;6.80;3.40;;;22.20;99.90;;;;;;5004957;28;20034;-83
2021/08/16 07:55:49;;;;;;;7.70;3.30;;;22.20;99.90;;;;;;5006171;28;20454;-83
2021/08/16 07:58:15;;;;;;;6.30;3.47;;;22.30;99.90;;;;;;5034935;28;20033;-84
2021/08/16 08:00:41;;;;;;;4.97;3.22;;;22.20;99.90;;;;;;5039555;28;20037;-83
2021/08/16 08:03:07;;;;;;;5.10;3.15;;;22.00;99.90;;;;;;5004931;28;20090;-84
2021/08/16 08:05:33;;;;;;;7.22;3.58;;;21.90;99.90;;;;;;5015543;28;20030;-87
2021/08/16 08:08:02;;;;;;;5.55;3.10;;;21.70;99.90;;;;;;5018695;28;20036;-84
2021/08/16 08:10:28;;;;;;;6.95;3.38;;;21.60;99.90;;;;;;5005561;28;20022;-85
2021/08/16 08:12:54;;;;;;;8.48;3.60;;;21.40;99.90;;;;;;5025348;28;20017;-86
2021/08/16 08:15:20;;;;;;;6.95;3.20;;;21.20;99.90;;;;;;5045342;28;20390;-87
2021/08/16 08:17:47;;;;;;;5.78;3.45;;;21.10;99.90;;;;;;5021776;28;20048;-86
2021/08/16 08:20:13;;;;;;;6.45;3.67;;;21.10;99.90;;;;;;5021023;28;20040;-84
2021/08/16 08:22:39;;;;;;;9.00;4.18;;;21.00;99.90;;;;;;5021113;28;20033;-84
2021/08/16 08:25:09;;;;;;;12.45;4.10;;;21.10;99.90;;;;;;4984752;28;20527;-85
2021/08/16 08:27:35;;;;;;;9.98;3.35;;;21.20;99.90;;;;;;5014860;28;20029;-87
2021/08/16 08:30:01;;;;;;;9.32;4.15;;;21.40;99.90;;;;;;5016049;28;20726;-84
2021/08/16 08:32:26;;;;;;;9.27;3.78;;;21.50;99.90;;;;;;5013968;28;20083;-85
2021/08/16 08:34:52;;;;;;;7.60;3.10;;;21.60;99.90;;;;;;4998213;28;20542;-85
2021/08/16 08:37:18;;;;;;;5.47;3.38;;;21.50;99.90;;;;;;5000615;28;20034;-84
2021/08/16 08:39:46;;;;;;;5.63;3.35;;;21.50;99.90;;;;;;5018477;28;20060;-86
2021/08/16 08:42:13;;;;;;;5.57;3.55;;;21.40;99.90;;;;;;5036801;28;20060;-84
2021/08/16 08:44:41;;;;;;;6.85;3.50;;;21.40;99.90;;;;;;5015753;28;20124;-85
2021/08/16 08:47:07;;;;;;;6.38;3.20;;;21.40;99.90;;;;;;4998133;28;20076;-89
2021/08/16 08:49:33;;;;;;;7.32;3.30;;;21.50;99.90;;;;;;5015030;28;20104;-86
2021/08/16 08:52:00;;;;;;;7.63;3.22;;;21.60;99.90;;;;;;4991585;28;20025;-87
2021/08/16 08:54:29;;;;;;;6.15;3.33;;;21.60;99.90;;;;;;5020226;28;20615;-88
2021/08/16 08:56:56;;;;;;;7.50;3.05;;;21.60;99.90;;;;;;5034542;28;20032;-85
2021/08/16 08:59:23;;;;;;;5.43;3.10;;;21.60;99.90;;;;;;5050701;28;20040;-85
2021/08/16 09:01:50;;;;;;;5.40;3.03;;;21.70;99.90;;;;;;5018762;28;20530;-90
2021/08/16 09:04:16;;;;;;;4.95;2.90;;;21.60;99.90;;;;;;5034129;28;20025;-84
2021/08/16 09:06:43;;;;;;;8.05;2.78;;;21.60;99.90;;;;;;5034291;28;20059;-87
2021/08/16 09:09:10;;;;;;;4.60;2.67;;;21.50;99.90;;;;;;5017972;28;20119;-87
2021/08/16 09:11:36;;;;;;;4.03;2.70;;;21.40;99.90;;;;;;5000566;28;20040;-84
2021/08/16 09:14:04;;;;;;;4.65;2.22;;;21.40;99.90;;;;;;5033436;28;20040;-83
2021/08/16 09:16:37;;;;;;;4.78;2.80;;;21.30;99.90;;;;;;5017523;28;20043;-84
2021/08/16 09:19:19;;;;;;;3.45;2.22;;;21.30;99.90;;;;;;4981318;28;20407;-83
2021/08/16 09:21:53;;;;;;;4.63;2.85;;;21.30;99.90;;;;;;5012524;28;20037;-87
2021/08/16 09:24:27;;;;;;;5.82;2.75;;;21.30;99.90;;;;;;5001659;28;20036;-86
2021/08/16 09:26:53;;;;;;;3.22;2.42;;;21.30;99.90;;;;;;5020822;28;20716;-84
2021/08/16 09:29:22;;;;;;;5.13;2.47;;;21.30;99.90;;;;;;4974138;28;20037;-85
2021/08/16 09:32:05;;;;;;;5.50;2.40;;;21.30;99.90;;;;;;4996915;28;20795;-89
2021/08/16 09:34:43;;;;;;;3.85;1.95;;;21.30;99.90;;;;;;5031480;28;20032;-85
2021/08/16 09:37:20;;;;;;;3.90;2.03;;;21.40;99.90;;;;;;5009028;28;20541;-84
2021/08/16 09:39:56;;;;;;;4.32;2.33;;;21.40;99.90;;;;;;5019700;28;20480;-84
2021/08/16 09:42:22;;;;;;;7.35;2.53;;;21.40;99.90;;;;;;5029329;28;20095;-85
2021/08/16 09:44:49;;;;;;;4.22;2.42;;;21.40;99.90;;;;;;4997172;28;20470;-84
2021/08/16 09:47:15;;;;;;;5.03;2.30;;;21.40;99.90;;;;;;4999686;28;20052;-83
2021/08/16 09:49:41;;;;;;;3.47;1.98;;;21.50;99.90;;;;;;5032960;28;20034;-85
2021/08/16 09:52:10;;;;;;;3.40;2.33;;;21.70;99.90;;;;;;5022935;28;20099;-85
2021/08/16 09:54:38;;;;;;;4.20;2.05;;;21.90;99.90;;;;;;5028361;28;20041;-84
2021/08/16 09:57:06;;;;;;;3.70;2.28;;;22.10;99.90;;;;;;5015895;28;20530;-87
2021/08/16 09:59:36;;;;;;;3.97;2.28;;;22.30;99.90;;;;;;5017168;28;20060;-86
2021/08/16 10:02:02;;;;;;;4.65;2.40;;;22.30;99.90;;;;;;5011992;28;20041;-86
2021/08/16 10:04:30;;;;;;;4.57;2.25;;;22.40;99.90;;;;;;4995093;28;20037;-86
2021/08/16 10:06:57;;;;;;;5.88;2.22;;;22.40;99.90;;;;;;5020604;28;20039;-85
2021/08/16 10:09:24;;;;;;;2.75;1.90;;;22.30;99.90;;;;;;5029483;28;20040;-84
2021/08/16 10:11:51;;;;;;;3.58;2.10;;;22.30;99.90;;;;;;5039899;28;20053;-87
2021/08/16 10:14:24;;;;;;;4.40;2.00;;;22.20;99.90;;;;;;5020839;28;20021;-85
2021/08/16 10:16:53;;;;;;;2.85;1.80;;;22.10;99.90;;;;;;5037182;28;20151;-86
2021/08/16 10:19:27;;;;;;;3.80;2.65;;;22.10;99.90;;;;;;5019151;28;20044;-86
2021/08/16 10:21:58;;;;;;;3.90;2.08;;;22.20;99.90;;;;;;5015092;28;20036;-84
2021/08/16 10:24:28;;;;;;;2.92;1.67;;;22.30;99.90;;;;;;5000690;28;20041;-87
2021/08/16 10:27:10;;;;;;;2.75;1.98;;;22.30;99.90;;;;;;5003711;28;20033;-87
2021/08/16 10:29:38;;;;;;;3.17;1.65;;;22.40;99.90;;;;;;5047302;28;20522;-87
2021/08/16 10:32:08;;;;;;;3.33;1.30;;;22.50;99.90;;;;;;5012056;28;20033;-88
2021/08/16 10:34:36;;;;;;;2.85;1.52;;;22.60;99.90;;;;;;5028535;28;20049;-83
2021/08/16 10:37:04;;;;;;;2.60;1.50;;;22.70;99.90;;;;;;5013389;28;20400;-85
2021/08/16 10:39:40;;;;;;;2.63;1.73;;;22.80;97.50;;;;;;5011618;28;20396;-84
2021/08/16 10:42:08;;;;;;;1.70;1.40;;;22.70;97.10;;;;;;5023344;28;20479;-84
2021/08/16 10:44:45;;;;;;;3.63;1.80;;;22.60;99.00;;;;;;5031868;28;20037;-85
2021/08/16 10:47:25;;;;;;;2.15;1.35;;;22.50;96.30;;;;;;5032938;28;20081;-85
2021/08/16 10:50:04;;;;;;;4.10;1.42;;;22.40;97.00;;;;;;5032474;28;20158;-83
2021/08/16 10:52:31;;;;;;;2.13;1.20;;;22.40;98.20;;;;;;5011529;28;20029;-86
2021/08/16 10:55:12;;;;;;;3.92;1.38;;;22.40;96.00;;;;;;5026077;28;20052;-85
2021/08/16 10:57:40;;;;;;;2.20;1.50;;;22.30;97.80;;;;;;5045722;28;20165;-83
2021/08/16 11:00:07;;;;;;;2.60;1.55;;;22.30;98.00;;;;;;5018625;28;20037;-87
2021/08/16 11:02:33;;;;;;;4.85;1.50;;;22.20;94.90;;;;;;5006296;28;20127;-83
2021/08/16 11:04:59;;;;;;;2.40;1.23;;;22.10;95.90;;;;;;4996552;28;20032;-83
2021/08/16 11:07:26;;;;;;;3.90;1.33;;;22.10;98.10;;;;;;5004880;28;20631;-86
2021/08/16 11:09:58;;;;;;;2.63;1.30;;;22.00;98.40;;;;;;5012412;28;20029;-86
2021/08/16 11:12:36;;;;;;;2.83;1.13;;;22.00;97.30;;;;;;5031318;28;20040;-86
2021/08/16 11:15:03;;;;;;;1.85;1.10;;;21.90;96.10;;;;;;5015080;28;20163;-85
2021/08/16 11:17:30;;;;;;;1.75;1.10;;;21.90;98.40;;;;;;5027498;28;20035;-86
2021/08/16 11:20:04;;;;;;;1.40;1.05;;;22.00;97.50;;;;;;5013120;28;20037;-87
2021/08/16 11:22:30;;;;;;;2.13;1.25;;;22.10;95.70;;;;;;5020171;28;20033;-87
2021/08/16 11:25:02;;;;;;;2.50;1.33;;;22.20;96.90;;;;;;5017402;28;20040;-87
2021/08/16 11:27:28;;;;;;;2.55;1.35;;;22.30;96.40;;;;;;5020150;28;20082;-85
2021/08/16 11:30:20;;;;;;;2.70;1.42;;;22.40;96.10;;;;;;5008179;28;20121;-85
2021/08/16 11:32:52;;;;;;;2.28;1.23;;;22.50;96.50;;;;;;5026664;28;20045;-87
2021/08/16 11:35:18;;;;;;;2.78;1.27;;;22.60;93.40;;;;;;5012812;28;20590;-87
2021/08/16 11:37:48;;;;;;;2.85;1.60;;;22.60;94.90;;;;;;4998160;28;20033;-86
2021/08/16 11:40:15;;;;;;;2.13;1.10;;;22.70;93.50;;;;;;5033226;28;20044;-89
2021/08/16 11:42:40;;;;;;;2.55;1.42;;;22.80;91.40;;;;;;5015674;28;20036;-86
2021/08/16 11:45:08;;;;;;;1.83;1.35;;;23.00;93.60;;;;;;4990061;28;20165;-86
2021/08/16 11:47:38;;;;;;;3.35;1.20;;;23.00;91.30;;;;;;4996063;28;20082;-86
2021/08/16 11:50:09;;;;;;;1.20;1.10;;;23.20;92.70;;;;;;5032611;28;20063;-85
2021/08/16 11:52:36;;;;;;;2.95;1.33;;;23.30;90.60;;;;;;5015477;28;20036;-86
2021/08/16 11:55:06;;;;;;;2.80;1.15;;;23.30;92.10;;;;;;5017226;28;20745;-84
2021/08/16 11:57:36;;;;;;;4.45;0.90;;;23.20;92.30;;;;;;5021620;28;20033;-84
2021/08/16 12:00:06;;;;;;;2.00;1.00;;;23.10;93.70;;;;;;5019394;28;20044;-87
2021/08/16 12:02:39;;;;;;;1.70;0.85;;;23.10;90.20;;;;;;5030386;28;20034;-90
2021/08/16 12:05:06;;;;;;;2.65;1.05;;;23.10;93.90;;;;;;4999493;28;20847;-86
2021/08/16 12:07:32;;;;;;;2.08;1.02;;;23.30;94.30;;;;;;5031370;28;20219;-83
2021/08/16 12:09:58;;;;;;;2.70;1.00;;;23.40;94.10;;;;;;5035051;28;20502;-87
2021/08/16 12:12:26;;;;;;;1.55;0.90;;;23.60;95.20;;;;;;4998930;28;20037;-85
2021/08/16 12:15:07;;;;;;;1.40;0.90;;;23.80;95.30;;;;;;5023351;28;20505;-84
2021/08/16 12:17:33;;;;;;;2.55;1.05;;;24.10;93.90;;;;;;5001365;28;20037;-84
2021/08/16 12:20:15;;;;;;;3.33;1.17;;;24.20;92.80;;;;;;5013155;28;20059;-86
2021/08/16 12:22:57;;;;;;;4.85;1.08;;;24.40;92.30;;;;;;5010858;28;20741;-86
2021/08/16 12:25:25;;;;;;;2.58;0.80;;;24.30;90.50;;;;;;5036159;28;20387;-83
2021/08/16 12:27:58;;;;;;;2.45;1.02;;;24.30;91.20;;;;;;5015796;28;20065;-85
2021/08/16 12:30:28;;;;;;;2.10;0.80;;;24.30;91.70;;;;;;5013790;28;20042;-84
2021/08/16 12:33:09;;;;;;;4.03;0.82;;;24.50;91.70;;;;;;5034369;28;20052;-83
2021/08/16 12:35:35;;;;;;;1.38;0.85;;;24.50;90.20;;;;;;5023504;28;20025;-83
2021/08/16 12:38:02;;;;;;;2.17;0.82;;;24.50;89.90;;;;;;5018009;28;20663;-85
2021/08/16 12:40:28;;;;;;;1.48;0.82;;;24.50;90.70;;;;;;5017057;28;20040;-88
2021/08/16 12:43:01;;;;;;;1.52;0.98;;;24.50;85.10;;;;;;4999973;28;20033;-84
2021/08/16 12:45:28;;;;;;;1.33;0.95;;;24.50;85.10;;;;;;5009391;28;20033;-82